sensor_id;sensor_type;location;lat;lon;timestamp;pressure;altitude;pressure_sealevel;temperature;humidity
56392;BME280;42289;53.582;9.714;2022-11-10T00:02:24;101682.25;;;9.65;100.00
56392;BME280;42289;53.582;9.714;2022-11-10T00:04:50;101697.16;;;9.55;100.00
56392;BME280;42289;53.582;9.714;2022-11-10T00:07:17;101712.84;;;9.50;100.00
56392;BME280;42289;53.582;9.714;2022-11-10T00:09:43;101733.59;;;9.49;100.00
56392;BME280;42289;53.582;9.714;2022-11-10T00:12:09;101745.03;;;9.40;100.00
56392;BME280;42289;53.582;9.714;2022-11-10T00:14:37;101752.03;;;9.35;100.00
56392;BME280;42289;53.582;9.714;2022-11-10T00:17:21;101761.56;;;9.34;100.00
56392;BME280;42289;53.582;9.714;2022-11-10T00:19:48;101770.09;;;9.41;100.00
56392;BME280;42289;53.582;9.714;2022-11-10T00:22:14;101782.16;;;9.42;100.00
56392;BME280;42289;53.582;9.714;2022-11-10T00:24:40;101789.94;;;9.43;100.00
56392;BME280;42289;53.582;9.714;2022-11-10T00:27:09;101798.56;;;9.46;100.00
56392;BME280;42289;53.582;9.714;2022-11-10T00:29:35;101805.53;;;9.43;100.00
56392;BME280;42289;53.582;9.714;2022-11-10T00:32:03;101802.94;;;9.43;100.00
56392;BME280;42289;53.582;9.714;2022-11-10T00:34:30;101808.91;;;9.47;100.00
56392;BME280;42289;53.582;9.714;2022-11-10T00:36:56;101805.56;;;9.40;100.00
56392;BME280;42289;53.582;9.714;2022-11-10T00:39:23;101813.44;;;9.36;100.00
56392;BME280;42289;53.582;9.714;2022-11-10T00:41:49;101833.38;;;9.32;100.00
56392;BME280;42289;53.582;9.714;2022-11-10T00:44:16;101833.53;;;9.24;100.00
56392;BME280;42289;53.582;9.714;2022-11-10T00:46:42;101829.31;;;9.17;100.00
56392;BME280;42289;53.582;9.714;2022-11-10T00:49:11;101831.97;;;9.14;100.00
56392;BME280;42289;53.582;9.714;2022-11-10T00:51:37;101836.31;;;9.12;100.00
56392;BME280;42289;53.582;9.714;2022-11-10T00:54:04;101845.84;;;9.12;100.00
56392;BME280;42289;53.582;9.714;2022-11-10T00:56:30;101845.00;;;9.08;100.00
56392;BME280;42289;53.582;9.714;2022-11-10T00:58:57;101845.03;;;9.06;100.00
56392;BME280;42289;53.582;9.714;2022-11-10T01:01:24;101855.38;;;9.08;100.00
56392;BME280;42289;53.582;9.714;2022-11-10T01:03:51;101858.16;;;8.97;100.00
56392;BME280;42289;53.582;9.714;2022-11-10T01:06:20;101859.06;;;8.93;100.00
56392;BME280;42289;53.582;9.714;2022-11-10T01:08:47;101870.31;;;8.92;100.00
56392;BME280;42289;53.582;9.714;2022-11-10T01:11:15;101882.53;;;8.87;100.00
56392;BME280;42289;53.582;9.714;2022-11-10T01:13:42;101882.53;;;8.87;100.00
56392;BME280;42289;53.582;9.714;2022-11-10T01:16:11;101885.09;;;8.85;100.00
56392;BME280;42289;53.582;9.714;2022-11-10T01:18:38;101898.06;;;8.88;100.00
56392;BME280;42289;53.582;9.714;2022-11-10T01:21:05;101905.03;;;8.83;100.00
56392;BME280;42289;53.582;9.714;2022-11-10T01:23:33;101907.53;;;8.88;100.00
56392;BME280;42289;53.582;9.714;2022-11-10T01:26:01;101903.38;;;8.79;100.00
56392;BME280;42289;53.582;9.714;2022-11-10T01:28:28;101912.88;;;8.79;100.00
56392;BME280;42289;53.582;9.714;2022-11-10T01:30:56;101915.47;;;8.77;100.00
56392;BME280;42289;53.582;9.714;2022-11-10T01:33:22;101920.63;;;8.80;100.00
56392;BME280;42289;53.582;9.714;2022-11-10T01:35:49;101923.31;;;8.74;100.00
56392;BME280;42289;53.582;9.714;2022-11-10T01:38:15;101919.81;;;8.77;100.00
56392;BME280;42289;53.582;9.714;2022-11-10T01:40:43;101931.13;;;8.71;100.00
56392;BME280;42289;53.582;9.714;2022-11-10T01:43:11;101929.38;;;8.71;100.00
56392;BME280;42289;53.582;9.714;2022-11-10T01:45:48;101934.59;;;8.70;100.00
56392;BME280;42289;53.582;9.714;2022-11-10T01:48:16;101933.75;;;8.68;100.00
56392;BME280;42289;53.582;9.714;2022-11-10T01:50:45;101938.94;;;8.66;100.00
56392;BME280;42289;53.582;9.714;2022-11-10T01:53:17;101950.22;;;8.62;100.00
56392;BME280;42289;53.582;9.714;2022-11-10T01:55:47;101956.25;;;8.66;100.00
56392;BME280;42289;53.582;9.714;2022-11-10T01:58:16;101950.25;;;8.61;100.00
56392;BME280;42289;53.582;9.714;2022-11-10T02:00:44;101954.50;;;8.66;100.00
56392;BME280;42289;53.582;9.714;2022-11-10T02:03:13;101958.81;;;8.67;100.00
56392;BME280;42289;53.582;9.714;2022-11-10T02:05:41;101954.63;;;8.58;100.00
56392;BME280;42289;53.582;9.714;2022-11-10T02:08:09;101958.00;;;8.65;100.00
56392;BME280;42289;53.582;9.714;2022-11-10T02:10:37;101964.97;;;8.60;100.00
56392;BME280;42289;53.582;9.714;2022-11-10T02:13:05;101966.66;;;8.63;100.00
56392;BME280;42289;53.582;9.714;2022-11-10T02:15:31;101969.28;;;8.58;100.00
56392;BME280;42289;53.582;9.714;2022-11-10T02:17:58;101979.75;;;8.52;100.00
56392;BME280;42289;53.582;9.714;2022-11-10T02:20:24;101975.38;;;8.54;100.00
56392;BME280;42289;53.582;9.714;2022-11-10T02:22:52;101973.69;;;8.50;100.00
56392;BME280;42289;53.582;9.714;2022-11-10T02:25:20;101979.78;;;8.46;100.00
56392;BME280;42289;53.582;9.714;2022-11-10T02:27:48;101976.34;;;8.44;100.00
56392;BME280;42289;53.582;9.714;2022-11-10T02:30:14;101974.59;;;8.44;100.00
56392;BME280;42289;53.582;9.714;2022-11-10T02:32:41;101978.94;;;8.42;100.00
56392;BME280;42289;53.582;9.714;2022-11-10T02:35:08;101981.53;;;8.40;100.00
56392;BME280;42289;53.582;9.714;2022-11-10T02:37:36;101988.50;;;8.38;100.00
56392;BME280;42289;53.582;9.714;2022-11-10T02:40:05;101986.81;;;8.34;100.00
56392;BME280;42289;53.582;9.714;2022-11-10T02:42:32;101991.97;;;8.36;100.00
56392;BME280;42289;53.582;9.714;2022-11-10T02:44:58;101996.28;;;8.34;100.00
56392;BME280;42289;53.582;9.714;2022-11-10T02:47:24;101995.34;;;8.42;100.00
56392;BME280;42289;53.582;9.714;2022-11-10T02:49:51;102001.47;;;8.34;100.00
56392;BME280;42289;53.582;9.714;2022-11-10T02:52:17;102006.69;;;8.31;100.00
56392;BME280;42289;53.582;9.714;2022-11-10T02:54:43;102007.63;;;8.23;100.00
56392;BME280;42289;53.582;9.714;2022-11-10T02:57:11;102000.78;;;8.19;100.00
56392;BME280;42289;53.582;9.714;2022-11-10T02:59:38;101998.13;;;8.24;100.00
56392;BME280;42289;53.582;9.714;2022-11-10T03:02:04;101999.03;;;8.18;100.00
56392;BME280;42289;53.582;9.714;2022-11-10T03:04:30;102006.84;;;8.17;100.00
56392;BME280;42289;53.582;9.714;2022-11-10T03:06:57;102010.28;;;8.16;100.00
56392;BME280;42289;53.582;9.714;2022-11-10T03:09:23;102025.00;;;8.15;100.00
56392;BME280;42289;53.582;9.714;2022-11-10T03:11:50;102037.06;;;8.15;100.00
56392;BME280;42289;53.582;9.714;2022-11-10T03:14:17;102034.44;;;8.18;100.00
56392;BME280;42289;53.582;9.714;2022-11-10T03:16:44;102038.78;;;8.16;100.00
56392;BME280;42289;53.582;9.714;2022-11-10T03:19:10;102052.56;;;8.18;100.00
56392;BME280;42289;53.582;9.714;2022-11-10T03:21:36;102050.00;;;8.15;100.00
56392;BME280;42289;53.582;9.714;2022-11-10T03:24:04;102056.94;;;8.13;100.00
56392;BME280;42289;53.582;9.714;2022-11-10T03:26:30;102061.22;;;8.17;100.00
56392;BME280;42289;53.582;9.714;2022-11-10T03:28:56;102059.47;;;8.22;100.00
56392;BME280;42289;53.582;9.714;2022-11-10T03:31:24;102056.84;;;8.20;100.00
56392;BME280;42289;53.582;9.714;2022-11-10T03:33:51;102061.22;;;8.18;100.00
56392;BME280;42289;53.582;9.714;2022-11-10T03:36:17;102060.38;;;8.15;100.00
56392;BME280;42289;53.582;9.714;2022-11-10T03:38:43;102055.16;;;8.16;100.00
56392;BME280;42289;53.582;9.714;2022-11-10T03:41:10;102073.28;;;8.21;100.00
56392;BME280;42289;53.582;9.714;2022-11-10T03:43:36;102062.06;;;8.22;100.00
56392;BME280;42289;53.582;9.714;2022-11-10T03:46:03;102063.72;;;8.24;100.00
56392;BME280;42289;53.582;9.714;2022-11-10T03:48:30;102060.25;;;8.29;100.00
56392;BME280;42289;53.582;9.714;2022-11-10T03:50:57;102059.41;;;8.27;100.00
56392;BME280;42289;53.582;9.714;2022-11-10T03:53:23;102066.34;;;8.26;100.00
56392;BME280;42289;53.582;9.714;2022-11-10T03:55:49;102068.94;;;8.26;100.00
56392;BME280;42289;53.582;9.714;2022-11-10T03:58:16;102071.50;;;8.28;100.00
56392;BME280;42289;53.582;9.714;2022-11-10T04:00:42;102071.50;;;8.26;100.00
56392;BME280;42289;53.582;9.714;2022-11-10T04:03:09;102075.88;;;8.21;100.00
56392;BME280;42289;53.582;9.714;2022-11-10T04:05:37;102087.03;;;8.29;100.00
56392;BME280;42289;53.582;9.714;2022-11-10T04:08:21;102093.03;;;8.31;100.00
56392;BME280;42289;53.582;9.714;2022-11-10T04:11:05;102091.31;;;8.32;100.00
56392;BME280;42289;53.582;9.714;2022-11-10T04:13:31;102106.81;;;8.39;100.00
56392;BME280;42289;53.582;9.714;2022-11-10T04:16:15;102109.41;;;8.35;100.00
56392;BME280;42289;53.582;9.714;2022-11-10T04:18:42;102114.53;;;8.42;100.00
56392;BME280;42289;53.582;9.714;2022-11-10T04:21:10;102119.72;;;8.47;100.00
56392;BME280;42289;53.582;9.714;2022-11-10T04:23:37;102123.13;;;8.52;100.00
56392;BME280;42289;53.582;9.714;2022-11-10T04:26:04;102120.47;;;8.60;100.00
56392;BME280;42289;53.582;9.714;2022-11-10T04:28:50;102120.34;;;8.72;100.00
56392;BME280;42289;53.582;9.714;2022-11-10T04:31:18;102121.19;;;8.74;100.00
56392;BME280;42289;53.582;9.714;2022-11-10T04:33:45;102122.94;;;8.72;100.00
56392;BME280;42289;53.582;9.714;2022-11-10T04:36:15;102134.16;;;8.76;100.00
56392;BME280;42289;53.582;9.714;2022-11-10T04:38:42;102131.53;;;8.78;100.00
56392;BME280;42289;53.582;9.714;2022-11-10T04:41:09;102131.53;;;8.78;100.00
56392;BME280;42289;53.582;9.714;2022-11-10T04:43:36;102129.84;;;8.73;100.00
56392;BME280;42289;53.582;9.714;2022-11-10T04:46:04;102123.03;;;8.63;100.00
56392;BME280;42289;53.582;9.714;2022-11-10T04:48:31;102137.78;;;8.55;100.00
56392;BME280;42289;53.582;9.714;2022-11-10T04:51:02;102150.69;;;8.63;100.00
56392;BME280;42289;53.582;9.714;2022-11-10T04:53:29;102149.88;;;8.57;100.00
56392;BME280;42289;53.582;9.714;2022-11-10T04:55:56;102156.81;;;8.54;100.00
56392;BME280;42289;53.582;9.714;2022-11-10T04:58:22;102149.06;;;8.49;100.00
56392;BME280;42289;53.582;9.714;2022-11-10T05:00:49;102164.63;;;8.49;100.00
56392;BME280;42289;53.582;9.714;2022-11-10T05:03:15;102170.59;;;8.57;100.00
56392;BME280;42289;53.582;9.714;2022-11-10T05:05:41;102167.22;;;8.45;100.00
56392;BME280;42289;53.582;9.714;2022-11-10T05:08:08;102157.69;;;8.50;100.00
56392;BME280;42289;53.582;9.714;2022-11-10T05:10:37;102167.22;;;8.46;100.00
56392;BME280;42289;53.582;9.714;2022-11-10T05:13:05;102168.09;;;8.44;100.00
56392;BME280;42289;53.582;9.714;2022-11-10T05:15:32;102173.28;;;8.47;100.00
56392;BME280;42289;53.582;9.714;2022-11-10T05:17:58;102175.75;;;8.61;100.00
56392;BME280;42289;53.582;9.714;2022-11-10T05:20:25;102175.81;;;8.51;100.00
56392;BME280;42289;53.582;9.714;2022-11-10T05:22:52;102191.38;;;8.51;100.00
56392;BME280;42289;53.582;9.714;2022-11-10T05:25:39;102190.47;;;8.55;100.00
56392;BME280;42289;53.582;9.714;2022-11-10T05:28:07;102195.72;;;8.49;100.00
56392;BME280;42289;53.582;9.714;2022-11-10T05:30:35;102200.91;;;8.45;100.00
56392;BME280;42289;53.582;9.714;2022-11-10T05:33:01;102199.06;;;8.62;100.00
56392;BME280;42289;53.582;9.714;2022-11-10T05:35:28;102200.00;;;8.53;100.00
56392;BME280;42289;53.582;9.714;2022-11-10T05:37:55;102198.22;;;8.62;100.00
56392;BME280;42289;53.582;9.714;2022-11-10T05:40:21;102194.88;;;8.46;100.00
56392;BME280;42289;53.582;9.714;2022-11-10T05:42:50;102209.53;;;8.42;100.00
56392;BME280;42289;53.582;9.714;2022-11-10T05:45:18;102206.13;;;8.38;100.00
56392;BME280;42289;53.582;9.714;2022-11-10T05:47:45;102210.47;;;8.33;100.00
56392;BME280;42289;53.582;9.714;2022-11-10T05:50:11;102212.25;;;8.27;100.00
56392;BME280;42289;53.582;9.714;2022-11-10T05:52:41;102212.22;;;8.30;100.00
56392;BME280;42289;53.582;9.714;2022-11-10T05:55:08;102222.63;;;8.27;100.00
56392;BME280;42289;53.582;9.714;2022-11-10T05:57:35;102229.47;;;8.34;100.00
56392;BME280;42289;53.582;9.714;2022-11-10T06:00:03;102231.28;;;8.21;100.00
56392;BME280;42289;53.582;9.714;2022-11-10T06:02:30;102234.72;;;8.28;100.00
56392;BME280;42289;53.582;9.714;2022-11-10T06:04:57;102236.47;;;8.21;100.00
56392;BME280;42289;53.582;9.714;2022-11-10T06:07:23;102251.16;;;8.17;100.00
56392;BME280;42289;53.582;9.714;2022-11-10T06:09:49;102258.97;;;8.08;100.00
56392;BME280;42289;53.582;9.714;2022-11-10T06:12:16;102273.69;;;8.06;100.00
56392;BME280;42289;53.582;9.714;2022-11-10T06:14:42;102282.31;;;8.03;100.00
56392;BME280;42289;53.582;9.714;2022-11-10T06:17:10;102274.56;;;7.99;100.00
56392;BME280;42289;53.582;9.714;2022-11-10T06:19:36;102270.25;;;7.99;100.00
56392;BME280;42289;53.582;9.714;2022-11-10T06:22:03;102282.34;;;7.97;100.00
56392;BME280;42289;53.582;9.714;2022-11-10T06:24:29;102299.59;;;8.00;100.00
56392;BME280;42289;53.582;9.714;2022-11-10T06:26:55;102288.41;;;7.98;100.00
56392;BME280;42289;53.582;9.714;2022-11-10T06:29:22;102296.13;;;7.96;100.00
56392;BME280;42289;53.582;9.714;2022-11-10T06:31:48;102299.59;;;7.97;100.00
56392;BME280;42289;53.582;9.714;2022-11-10T06:34:16;102298.75;;;7.99;100.00
56392;BME280;42289;53.582;9.714;2022-11-10T06:36:43;102298.69;;;8.07;100.00
56392;BME280;42289;53.582;9.714;2022-11-10T06:39:09;102305.63;;;8.03;100.00
56392;BME280;42289;53.582;9.714;2022-11-10T06:41:35;102310.81;;;8.02;100.00
56392;BME280;42289;53.582;9.714;2022-11-10T06:44:02;102313.38;;;8.00;100.00
56392;BME280;42289;53.582;9.714;2022-11-10T06:46:28;102322.03;;;7.96;100.00
56392;BME280;42289;53.582;9.714;2022-11-10T06:48:55;102324.66;;;7.98;100.00
56392;BME280;42289;53.582;9.714;2022-11-10T06:51:23;102323.75;;;7.99;100.00
56392;BME280;42289;53.582;9.714;2022-11-10T06:53:49;102331.53;;;7.99;100.00
56392;BME280;42289;53.582;9.714;2022-11-10T06:56:15;102344.50;;;7.94;100.00
56392;BME280;42289;53.582;9.714;2022-11-10T06:58:42;102350.56;;;7.88;100.00
56392;BME280;42289;53.582;9.714;2022-11-10T07:01:08;102343.66;;;7.94;100.00
56392;BME280;42289;53.582;9.714;2022-11-10T07:03:34;102353.09;;;7.96;100.00
56392;BME280;42289;53.582;9.714;2022-11-10T07:06:02;102365.22;;;7.94;100.00
56392;BME280;42289;53.582;9.714;2022-11-10T07:08:29;102366.91;;;8.00;100.00
56392;BME280;42289;53.582;9.714;2022-11-10T07:10:56;102361.72;;;8.06;100.00
56392;BME280;42289;53.582;9.714;2022-11-10T07:13:22;102374.69;;;8.04;100.00
56392;BME280;42289;53.582;9.714;2022-11-10T07:15:49;102384.16;;;8.10;100.00
56392;BME280;42289;53.582;9.714;2022-11-10T07:18:15;102389.34;;;8.08;100.00
56392;BME280;42289;53.582;9.714;2022-11-10T07:20:42;102393.66;;;8.11;100.00
56392;BME280;42289;53.582;9.714;2022-11-10T07:23:10;102387.59;;;8.18;100.00
56392;BME280;42289;53.582;9.714;2022-11-10T07:25:38;102394.47;;;8.22;100.00
56392;BME280;42289;53.582;9.714;2022-11-10T07:28:06;102397.06;;;8.25;100.00
56392;BME280;42289;53.582;9.714;2022-11-10T07:30:34;102409.13;;;8.31;100.00
56392;BME280;42289;53.582;9.714;2022-11-10T07:33:03;102410.84;;;8.37;100.00
56392;BME280;42289;53.582;9.714;2022-11-10T07:35:30;102406.53;;;8.47;100.00
56392;BME280;42289;53.582;9.714;2022-11-10T07:38:03;102401.34;;;8.47;100.00
56392;BME280;42289;53.582;9.714;2022-11-10T07:40:30;102416.84;;;8.51;100.00
56392;BME280;42289;53.582;9.714;2022-11-10T07:42:59;102421.16;;;8.54;100.00
56392;BME280;42289;53.582;9.714;2022-11-10T07:45:26;102420.28;;;8.64;100.00
56392;BME280;42289;53.582;9.714;2022-11-10T07:47:57;102423.72;;;8.69;100.00
56392;BME280;42289;53.582;9.714;2022-11-10T07:50:23;102426.25;;;8.75;100.00
56392;BME280;42289;53.582;9.714;2022-11-10T07:52:50;102430.53;;;8.86;100.00
56392;BME280;42289;53.582;9.714;2022-11-10T07:55:16;102429.66;;;8.88;100.00
56392;BME280;42289;53.582;9.714;2022-11-10T07:57:43;102434.78;;;8.95;100.00
56392;BME280;42289;53.582;9.714;2022-11-10T08:00:12;102426.13;;;9.00;100.00
56392;BME280;42289;53.582;9.714;2022-11-10T08:02:38;102426.97;;;9.02;100.00
56392;BME280;42289;53.582;9.714;2022-11-10T08:05:05;102421.78;;;9.02;100.00
56392;BME280;42289;53.582;9.714;2022-11-10T08:07:32;102429.56;;;9.07;100.00
56392;BME280;42289;53.582;9.714;2022-11-10T08:09:58;102432.97;;;9.11;100.00
56392;BME280;42289;53.582;9.714;2022-11-10T08:12:25;102422.53;;;9.21;100.00
56392;BME280;42289;53.582;9.714;2022-11-10T08:14:51;102432.84;;;9.29;100.00
56392;BME280;42289;53.582;9.714;2022-11-10T08:17:19;102417.28;;;9.31;100.00
56392;BME280;42289;53.582;9.714;2022-11-10T08:19:45;102418.19;;;9.25;100.00
56392;BME280;42289;53.582;9.714;2022-11-10T08:22:12;102416.34;;;9.41;100.00
56392;BME280;42289;53.582;9.714;2022-11-10T08:24:38;102411.06;;;9.47;100.00
56392;BME280;42289;53.582;9.714;2022-11-10T08:27:05;102416.34;;;9.39;100.00
56392;BME280;42289;53.582;9.714;2022-11-10T08:29:31;102413.56;;;9.59;100.00
56392;BME280;42289;53.582;9.714;2022-11-10T08:31:57;102411.78;;;9.65;100.00
56392;BME280;42289;53.582;9.714;2022-11-10T08:34:25;102413.47;;;9.69;100.00
56392;BME280;42289;53.582;9.714;2022-11-10T08:36:52;102399.59;;;9.73;100.00
56392;BME280;42289;53.582;9.714;2022-11-10T08:39:18;102398.72;;;9.75;100.00
56392;BME280;42289;53.582;9.714;2022-11-10T08:41:45;102401.28;;;9.80;100.00
56392;BME280;42289;53.582;9.714;2022-11-10T08:44:11;102407.25;;;9.88;100.00
56392;BME280;42289;53.582;9.714;2022-11-10T08:46:38;102396.81;;;9.93;100.00
56392;BME280;42289;53.582;9.714;2022-11-10T08:49:04;102390.78;;;9.88;100.00
56392;BME280;42289;53.582;9.714;2022-11-10T08:51:32;102384.72;;;9.92;100.00
56392;BME280;42289;53.582;9.714;2022-11-10T08:53:58;102378.34;;;10.19;100.00
56392;BME280;42289;53.582;9.714;2022-11-10T08:56:25;102358.63;;;10.00;100.00
56392;BME280;42289;53.582;9.714;2022-11-10T08:58:51;102350.88;;;9.97;100.00
56392;BME280;42289;53.582;9.714;2022-11-10T09:01:18;102355.09;;;10.05;100.00
56392;BME280;42289;53.582;9.714;2022-11-10T09:03:45;102336.88;;;10.10;100.00
56392;BME280;42289;53.582;9.714;2022-11-10T09:06:11;102344.78;;;10.01;100.00
56392;BME280;42289;53.582;9.714;2022-11-10T09:08:39;102350.78;;;10.06;100.00
56392;BME280;42289;53.582;9.714;2022-11-10T09:11:05;102346.31;;;10.16;100.00
56392;BME280;42289;53.582;9.714;2022-11-10T09:13:32;102343.69;;;10.17;100.00
56392;BME280;42289;53.582;9.714;2022-11-10T09:16:00;102344.47;;;10.25;100.00
56392;BME280;42289;53.582;9.714;2022-11-10T09:18:27;102342.63;;;10.34;100.00
56392;BME280;42289;53.582;9.714;2022-11-10T09:20:54;102329.59;;;10.40;100.00
56392;BME280;42289;53.582;9.714;2022-11-10T09:23:20;102309.69;;;10.37;100.00
56392;BME280;42289;53.582;9.714;2022-11-10T09:25:51;102286.44;;;10.25;100.00
56392;BME280;42289;53.582;9.714;2022-11-10T09:28:19;102275.94;;;10.36;100.00
56392;BME280;42289;53.582;9.714;2022-11-10T09:30:46;102276.81;;;10.32;100.00
56392;BME280;42289;53.582;9.714;2022-11-10T09:33:13;102276.63;;;10.47;100.00
56392;BME280;42289;53.582;9.714;2022-11-10T09:35:40;102269.03;;;10.32;100.00
56392;BME280;42289;53.582;9.714;2022-11-10T09:38:07;102260.25;;;10.42;100.00
56392;BME280;42289;53.582;9.714;2022-11-10T09:40:44;102252.25;;;10.54;100.00
56392;BME280;42289;53.582;9.714;2022-11-10T09:43:19;102232.09;;;10.67;100.00
56392;BME280;42289;53.582;9.714;2022-11-10T09:45:49;102217.44;;;10.63;100.00
56392;BME280;42289;53.582;9.714;2022-11-10T09:48:23;102201.53;;;10.82;100.00
56392;BME280;42289;53.582;9.714;2022-11-10T09:50:53;102164.81;;;10.99;100.00
56392;BME280;42289;53.582;9.714;2022-11-10T09:53:24;102127.41;;;11.04;100.00
56392;BME280;42289;53.582;9.714;2022-11-10T09:55:55;102100.38;;;11.11;100.00
56392;BME280;42289;53.582;9.714;2022-11-10T09:58:29;102092.59;;;11.10;100.00
56392;BME280;42289;53.582;9.714;2022-11-10T10:01:05;102047.25;;;11.22;100.00
56392;BME280;42289;53.582;9.714;2022-11-10T10:03:34;102037.59;;;11.25;100.00
56392;BME280;42289;53.582;9.714;2022-11-10T10:06:07;101997.59;;;11.31;100.00
56392;BME280;42289;53.582;9.714;2022-11-10T10:08:42;101940.25;;;11.34;100.00
56392;BME280;42289;53.582;9.714;2022-11-10T10:11:17;101922.44;;;11.16;100.00
56392;BME280;42289;53.582;9.714;2022-11-10T10:14:01;101939.91;;;11.10;100.00
56392;BME280;42289;53.582;9.714;2022-11-10T10:16:33;101957.91;;;11.20;100.00
56392;BME280;42289;53.582;9.714;2022-11-10T10:19:11;101971.72;;;11.23;100.00
56392;BME280;42289;53.582;9.714;2022-11-10T10:21:46;101990.16;;;11.14;100.00
56392;BME280;42289;53.582;9.714;2022-11-10T10:24:19;101988.44;;;11.13;100.00
56392;BME280;42289;53.582;9.714;2022-11-10T10:26:50;102004.97;;;11.12;100.00
56392;BME280;42289;53.582;9.714;2022-11-10T10:29:21;102009.31;;;11.10;100.00
56392;BME280;42289;53.582;9.714;2022-11-10T10:31:50;102005.59;;;11.22;100.00
56392;BME280;42289;53.582;9.714;2022-11-10T10:34:18;101984.84;;;11.19;100.00
56392;BME280;42289;53.582;9.714;2022-11-10T10:36:45;101979.47;;;11.26;100.00
56392;BME280;42289;53.582;9.714;2022-11-10T10:39:14;101958.44;;;11.36;100.00
56392;BME280;42289;53.582;9.714;2022-11-10T10:41:44;101949.72;;;11.37;100.00
56392;BME280;42289;53.582;9.714;2022-11-10T10:44:12;101898.38;;;11.43;100.00
56392;BME280;42289;53.582;9.714;2022-11-10T10:46:49;101864.47;;;11.45;100.00
56392;BME280;42289;53.582;9.714;2022-11-10T10:49:18;101820.72;;;11.59;100.00
56392;BME280;42289;53.582;9.714;2022-11-10T10:51:46;101817.25;;;11.59;100.00
56392;BME280;42289;53.582;9.714;2022-11-10T10:54:24;101800.28;;;11.75;100.00
56392;BME280;42289;53.582;9.714;2022-11-10T10:57:00;101774.34;;;11.72;100.00
56392;BME280;42289;53.582;9.714;2022-11-10T10:59:27;101754.38;;;11.73;100.00
56392;BME280;42289;53.582;9.714;2022-11-10T11:01:55;101753.69;;;11.66;100.00
56392;BME280;42289;53.582;9.714;2022-11-10T11:04:27;101758.16;;;11.61;100.00
56392;BME280;42289;53.582;9.714;2022-11-10T11:06:55;101748.69;;;11.58;100.00
56392;BME280;42289;53.582;9.714;2022-11-10T11:09:24;101756.94;;;11.74;100.00
56392;BME280;42289;53.582;9.714;2022-11-10T11:11:59;101749.59;;;11.87;100.00
56392;BME280;42289;53.582;9.714;2022-11-10T11:14:27;101734.63;;;11.95;100.00
56392;BME280;42289;53.582;9.714;2022-11-10T11:16:57;101732.00;;;11.97;100.00
56392;BME280;42289;53.582;9.714;2022-11-10T11:19:26;101726.41;;;11.80;100.00
56392;BME280;42289;53.582;9.714;2022-11-10T11:22:26;101725.41;;;11.84;100.00
56392;BME280;42289;53.582;9.714;2022-11-10T11:24:57;101714.31;;;11.77;100.00
56392;BME280;42289;53.582;9.714;2022-11-10T11:27:31;101720.16;;;11.85;100.00
56392;BME280;42289;53.582;9.714;2022-11-10T11:30:07;101730.41;;;11.90;100.00
56392;BME280;42289;53.582;9.714;2022-11-10T11:32:56;101712.75;;;12.01;100.00
56392;BME280;42289;53.582;9.714;2022-11-10T11:35:32;101720.75;;;11.95;100.00
56392;BME280;42289;53.582;9.714;2022-11-10T11:38:09;101721.88;;;12.15;100.00
56392;BME280;42289;53.582;9.714;2022-11-10T11:40:47;101705.63;;;12.06;100.00
56392;BME280;42289;53.582;9.714;2022-11-10T11:43:27;101709.28;;;12.01;100.00
56392;BME280;42289;53.582;9.714;2022-11-10T11:46:03;101699.06;;;11.93;100.00
56392;BME280;42289;53.582;9.714;2022-11-10T11:48:44;101703.41;;;11.92;100.00
56392;BME280;42289;53.582;9.714;2022-11-10T11:51:15;101684.03;;;12.03;100.00
56392;BME280;42289;53.582;9.714;2022-11-10T11:53:56;101703.91;;;12.07;100.00
56392;BME280;42289;53.582;9.714;2022-11-10T11:56:29;101688.63;;;11.93;100.00
56392;BME280;42289;53.582;9.714;2022-11-10T11:59:13;101710.19;;;12.00;100.00
56392;BME280;42289;53.582;9.714;2022-11-10T12:01:54;101711.06;;;12.00;100.00
56392;BME280;42289;53.582;9.714;2022-11-10T12:04:40;101716.59;;;11.88;100.00
56392;BME280;42289;53.582;9.714;2022-11-10T12:07:21;101713.75;;;11.97;100.00
56392;BME280;42289;53.582;9.714;2022-11-10T12:09:53;101721.56;;;11.97;100.00
56392;BME280;42289;53.582;9.714;2022-11-10T12:12:53;101744.31;;;11.90;100.00
56392;BME280;42289;53.582;9.714;2022-11-10T12:15:29;101726.09;;;11.89;100.00
56392;BME280;42289;53.582;9.714;2022-11-10T12:18:05;101727.72;;;11.94;100.00
56392;BME280;42289;53.582;9.714;2022-11-10T12:20:50;101723.47;;;11.90;100.00
56392;BME280;42289;53.582;9.714;2022-11-10T12:23:26;101726.09;;;11.89;100.00
56392;BME280;42289;53.582;9.714;2022-11-10T12:26:04;101740.78;;;11.91;100.00
56392;BME280;42289;53.582;9.714;2022-11-10T12:28:37;101739.13;;;11.89;100.00
56392;BME280;42289;53.582;9.714;2022-11-10T12:31:09;101722.50;;;11.94;100.00
56392;BME280;42289;53.582;9.714;2022-11-10T12:33:40;101719.94;;;11.91;100.00
56392;BME280;42289;53.582;9.714;2022-11-10T12:36:12;101722.69;;;11.87;100.00
56392;BME280;42289;53.582;9.714;2022-11-10T12:38:45;101749.75;;;11.83;100.00
56392;BME280;42289;53.582;9.714;2022-11-10T12:41:15;101754.75;;;11.89;100.00
56392;BME280;42289;53.582;9.714;2022-11-10T12:43:55;101767.78;;;11.89;100.00
56392;BME280;42289;53.582;9.714;2022-11-10T12:46:23;101771.44;;;11.83;100.00
56392;BME280;42289;53.582;9.714;2022-11-10T12:48:59;101778.19;;;11.90;100.00
56392;BME280;42289;53.582;9.714;2022-11-10T12:51:34;101791.38;;;11.84;100.00
56392;BME280;42289;53.582;9.714;2022-11-10T12:54:07;101819.94;;;11.87;100.00
56392;BME280;42289;53.582;9.714;2022-11-10T12:56:37;101819.88;;;11.90;100.00
56392;BME280;42289;53.582;9.714;2022-11-10T12:59:24;101830.31;;;11.89;100.00